Time;durP1;ratioP1;P1;durP2;ratioP2;P2;SDS_P1;SDS_P2;PMS_P1;PMS_P2;Temp;Humidity;BMP_temperature;BMP_pressure;BME280_temperature;BME280_humidity;BME280_pressure;Samples;Min_cycle;Max_cycle;Signal;HPM_P1;HPM_P2
2022/09/06 00:01:13;;;;;;;5.33;4.93;;;25.00;68.10;;;;;;5053503;28;20444;-67
2022/09/06 00:03:40;;;;;;;3.57;3.27;;;24.90;68.00;;;;;;5042659;28;20440;-67
2022/09/06 00:06:11;;;;;;;3.30;3.10;;;24.90;67.90;;;;;;5033633;28;20936;-68
2022/09/06 00:08:38;;;;;;;3.03;2.83;;;24.90;67.90;;;;;;5033515;28;20560;-67
2022/09/06 00:11:05;;;;;;;2.60;2.50;;;24.80;68.00;;;;;;5049039;28;20884;-68
2022/09/06 00:13:32;;;;;;;3.50;3.17;;;24.70;68.60;;;;;;5053102;28;20498;-67
2022/09/06 00:16:05;;;;;;;3.27;3.07;;;24.70;69.40;;;;;;5053131;28;20532;-67
2022/09/06 00:18:32;;;;;;;2.50;2.40;;;24.70;71.00;;;;;;5053194;28;20547;-67
2022/09/06 00:20:59;;;;;;;2.70;2.50;;;24.60;72.20;;;;;;5053061;28;20454;-68
2022/09/06 00:23:27;;;;;;;3.30;3.07;;;24.60;71.80;;;;;;5053023;28;20475;-67
2022/09/06 00:26:01;;;;;;;2.97;2.77;;;24.60;71.20;;;;;;5053119;28;20444;-67
2022/09/06 00:28:27;;;;;;;2.90;2.40;;;24.60;69.70;;;;;;5053010;28;20797;-67
2022/09/06 00:30:54;;;;;;;3.80;2.33;;;24.60;68.30;;;;;;5052999;28;20444;-67
2022/09/06 00:33:21;;;;;;;3.07;2.87;;;24.60;67.60;;;;;;5052629;28;20463;-67
2022/09/06 00:35:48;;;;;;;3.13;2.80;;;24.60;66.90;;;;;;5052932;28;20475;-67
2022/09/06 00:38:15;;;;;;;3.70;2.90;;;24.60;65.50;;;;;;5052735;28;20547;-67
2022/09/06 00:40:43;;;;;;;2.80;2.60;;;24.60;65.30;;;;;;5052733;28;20536;-68
2022/09/06 00:43:10;;;;;;;2.60;2.40;;;24.60;65.70;;;;;;5052548;28;20490;-68
2022/09/06 00:45:37;;;;;;;3.23;3.03;;;24.60;65.80;;;;;;5052707;28;20471;-67
2022/09/06 00:48:04;;;;;;;3.17;2.80;;;24.60;65.80;;;;;;5049505;28;20461;-68
2022/09/06 00:50:31;;;;;;;3.50;2.87;;;24.60;66.10;;;;;;5032720;28;20495;-67
2022/09/06 00:52:58;;;;;;;2.90;2.70;;;24.60;66.60;;;;;;5032521;28;20453;-67
2022/09/06 00:55:25;;;;;;;2.83;2.63;;;24.60;67.50;;;;;;5032637;28;20571;-66
2022/09/06 00:57:55;;;;;;;4.93;3.10;;;24.60;67.80;;;;;;5032327;28;20854;-68
2022/09/06 01:00:22;;;;;;;2.97;2.77;;;24.50;68.40;;;;;;5032487;28;20444;-68
2022/09/06 01:02:49;;;;;;;3.37;3.10;;;24.50;69.90;;;;;;5032410;28;20473;-67
2022/09/06 01:05:17;;;;;;;2.23;2.03;;;24.40;71.30;;;;;;5032275;28;20472;-67
2022/09/06 01:08:03;;;;;;;2.97;2.70;;;24.40;74.10;;;;;;5032375;28;20447;-67
2022/09/06 01:10:48;;;;;;;2.77;2.57;;;24.30;78.10;;;;;;5032452;28;20450;-66
2022/09/06 01:13:28;;;;;;;4.80;4.03;;;24.30;82.40;;;;;;5032220;28;20448;-67
2022/09/06 01:16:04;;;;;;;4.40;3.00;;;24.10;89.90;;;;;;5032618;28;20444;-66
2022/09/06 01:18:43;;;;;;;6.57;2.87;;;24.20;90.70;;;;;;5038107;28;20531;-67
2022/09/06 01:21:24;;;;;;;2.43;2.23;;;24.20;91.90;;;;;;5052279;28;20443;-67
2022/09/06 01:24:32;;;;;;;3.63;3.43;;;24.20;94.00;;;;;;5051868;28;20864;-68
2022/09/06 01:27:20;;;;;;;3.00;2.80;;;24.20;96.40;;;;;;5052051;28;20444;-67
2022/09/06 01:29:51;;;;;;;4.03;3.13;;;24.30;97.90;;;;;;5051841;28;20462;-67
2022/09/06 01:32:25;;;;;;;3.60;3.40;;;24.30;98.70;;;;;;5052116;28;20475;-68
2022/09/06 01:34:58;;;;;;;2.67;2.47;;;24.20;99.90;;;;;;5051880;28;20917;-68
2022/09/06 01:37:25;;;;;;;3.20;3.00;;;24.10;99.90;;;;;;5051822;28;20539;-68
2022/09/06 01:39:52;;;;;;;3.40;3.20;;;23.90;99.90;;;;;;5051661;28;20460;-68
2022/09/06 01:42:22;;;;;;;3.10;2.90;;;23.80;99.90;;;;;;5051835;28;20535;-68
2022/09/06 01:44:54;;;;;;;5.63;3.07;;;23.90;99.90;;;;;;5051691;28;20523;-68
2022/09/06 01:47:30;;;;;;;4.00;3.70;;;24.00;99.90;;;;;;5051682;28;20444;-68
2022/09/06 01:50:15;;;;;;;3.60;2.93;;;24.00;99.90;;;;;;5051292;28;20468;-67
2022/09/06 01:52:54;;;;;;;3.87;3.57;;;24.10;99.90;;;;;;5051260;28;20448;-68
2022/09/06 01:55:27;;;;;;;3.90;3.60;;;24.00;99.90;;;;;;5031850;28;21004;-67
2022/09/06 01:58:09;;;;;;;3.27;2.87;;;23.80;99.90;;;;;;5031524;28;20451;-67
2022/09/06 02:00:43;;;;;;;3.60;3.30;;;23.70;99.90;;;;;;5031766;28;20467;-67
2022/09/06 02:03:18;;;;;;;3.57;3.30;;;23.70;99.90;;;;;;5031527;28;20444;-67
2022/09/06 02:05:49;;;;;;;3.27;3.07;;;23.70;99.90;;;;;;5031652;28;20523;-67
2022/09/06 02:08:22;;;;;;;3.27;2.87;;;23.80;99.90;;;;;;5031474;28;20468;-68
2022/09/06 02:10:54;;;;;;;3.50;3.30;;;23.80;99.90;;;;;;5031577;28;20491;-67
2022/09/06 02:13:24;;;;;;;2.50;2.40;;;23.90;99.90;;;;;;5035869;28;20515;-68
2022/09/06 02:15:56;;;;;;;5.60;3.50;;;23.90;99.90;;;;;;5051367;28;20479;-68
2022/09/06 02:18:29;;;;;;;7.40;3.53;;;23.90;99.90;;;;;;5051385;28;20547;-68
2022/09/06 02:20:58;;;;;;;3.47;3.00;;;23.90;99.90;;;;;;5051478;28;20538;-67
2022/09/06 02:23:30;;;;;;;4.13;3.83;;;24.00;99.90;;;;;;5051132;28;20444;-68
2022/09/06 02:26:03;;;;;;;6.07;3.17;;;24.00;99.90;;;;;;5051502;28;20514;-67
2022/09/06 02:28:29;;;;;;;3.53;3.13;;;24.10;99.90;;;;;;5051249;28;20547;-68
2022/09/06 02:31:00;;;;;;;3.37;2.93;;;23.90;99.90;;;;;;5051261;28;20531;-68
2022/09/06 02:33:31;;;;;;;3.10;3.00;;;23.90;99.90;;;;;;5051176;28;20523;-67
2022/09/06 02:36:04;;;;;;;3.07;2.87;;;23.90;99.90;;;;;;5051305;28;20484;-68
2022/09/06 02:38:34;;;;;;;2.90;2.70;;;23.90;99.90;;;;;;5051180;28;20463;-67
2022/09/06 02:41:01;;;;;;;3.33;3.13;;;23.90;99.90;;;;;;5051032;28;20448;-68
2022/09/06 02:43:28;;;;;;;3.83;3.50;;;23.90;99.90;;;;;;5050944;28;20448;-67
2022/09/06 02:45:56;;;;;;;5.30;3.37;;;23.90;99.90;;;;;;5051262;28;20462;-67
2022/09/06 02:48:23;;;;;;;4.10;3.70;;;23.90;99.90;;;;;;5051112;28;20456;-67
2022/09/06 02:50:50;;;;;;;3.10;2.87;;;23.90;99.90;;;;;;5051104;28;20455;-67
2022/09/06 02:53:17;;;;;;;4.30;3.27;;;24.00;99.90;;;;;;5033560;28;20958;-67
2022/09/06 02:55:46;;;;;;;4.20;3.67;;;24.00;99.90;;;;;;5031152;28;20488;-66
2022/09/06 02:58:13;;;;;;;3.93;3.37;;;24.00;99.90;;;;;;5031023;28;21013;-68
2022/09/06 03:00:40;;;;;;;3.73;3.40;;;24.00;99.90;;;;;;5031169;28;20445;-67
2022/09/06 03:03:08;;;;;;;4.87;3.90;;;23.90;99.90;;;;;;5049190;28;20882;-68
2022/09/06 03:05:35;;;;;;;7.37;4.07;;;23.90;99.90;;;;;;5054637;28;20613;-67
2022/09/06 03:08:02;;;;;;;4.70;4.30;;;23.80;99.90;;;;;;5054416;28;20491;-67
2022/09/06 03:10:29;;;;;;;3.90;3.60;;;23.80;99.90;;;;;;5054484;28;20440;-67
2022/09/06 03:12:57;;;;;;;4.03;3.73;;;23.90;99.90;;;;;;5040905;28;20888;-67
2022/09/06 03:15:24;;;;;;;5.70;4.20;;;23.90;99.90;;;;;;5034358;28;20901;-68
2022/09/06 03:17:51;;;;;;;3.37;3.07;;;23.80;99.90;;;;;;5034475;28;20448;-67
2022/09/06 03:20:19;;;;;;;4.80;4.40;;;23.80;99.90;;;;;;5034365;28;20872;-67
2022/09/06 03:22:46;;;;;;;5.07;4.47;;;23.80;99.90;;;;;;5046397;28;20967;-67
2022/09/06 03:25:13;;;;;;;3.53;3.40;;;23.80;99.90;;;;;;5054322;28;20440;-67
2022/09/06 03:27:40;;;;;;;3.90;3.30;;;23.80;99.90;;;;;;5054128;28;20443;-67
2022/09/06 03:30:08;;;;;;;3.20;3.00;;;23.80;99.90;;;;;;5054136;28;20472;-67
2022/09/06 03:32:35;;;;;;;5.30;3.07;;;23.90;99.90;;;;;;5043807;28;20525;-67
2022/09/06 03:35:02;;;;;;;3.70;3.40;;;23.90;99.90;;;;;;5039752;28;21084;-65
2022/09/06 03:37:30;;;;;;;3.10;2.57;;;24.00;99.90;;;;;;5034618;28;20532;-65
2022/09/06 03:39:57;;;;;;;3.20;3.00;;;24.10;99.90;;;;;;5033955;28;20464;-65
2022/09/06 03:42:25;;;;;;;3.10;2.90;;;24.10;99.90;;;;;;5033899;28;20856;-65
2022/09/06 03:44:52;;;;;;;2.70;2.60;;;24.20;99.90;;;;;;5036116;28;20536;-65
2022/09/06 03:47:19;;;;;;;3.17;2.90;;;24.20;99.90;;;;;;5053850;28;20843;-65
2022/09/06 03:49:46;;;;;;;2.43;2.33;;;24.30;99.90;;;;;;5053671;28;20555;-65
2022/09/06 03:52:13;;;;;;;3.23;2.90;;;24.30;99.90;;;;;;5053768;28;20476;-66
2022/09/06 03:54:42;;;;;;;3.07;2.87;;;24.30;99.90;;;;;;5039350;28;20477;-67
2022/09/06 03:57:09;;;;;;;3.40;2.83;;;24.30;99.90;;;;;;5033690;28;20433;-66
2022/09/06 03:59:36;;;;;;;4.40;2.90;;;24.40;99.90;;;;;;5033578;28;20843;-66
2022/09/06 04:02:03;;;;;;;3.27;2.97;;;24.40;99.90;;;;;;5039754;28;20531;-66
2022/09/06 04:04:30;;;;;;;4.37;3.47;;;24.40;99.90;;;;;;5053340;28;20818;-66
2022/09/06 04:06:57;;;;;;;5.30;3.43;;;24.40;99.90;;;;;;5053521;28;20538;-66
2022/09/06 04:09:23;;;;;;;8.20;4.77;;;24.40;99.90;;;;;;5053370;28;20538;-66
2022/09/06 04:11:52;;;;;;;8.40;4.57;;;24.40;99.90;;;;;;5049201;28;20485;-66
2022/09/06 04:14:19;;;;;;;9.93;4.67;;;24.40;99.90;;;;;;5032775;28;20524;-66
2022/09/06 04:16:45;;;;;;;10.00;3.77;;;24.40;99.90;;;;;;5033342;28;20492;-66
2022/09/06 04:19:12;;;;;;;4.47;3.93;;;24.50;99.90;;;;;;5033197;28;20479;-66
2022/09/06 04:21:39;;;;;;;5.43;4.10;;;24.50;99.90;;;;;;5035198;28;20459;-64
2022/09/06 04:24:06;;;;;;;5.13;4.63;;;24.50;99.90;;;;;;5052864;28;20455;-64
2022/09/06 19:44:15;;;;;;;5.18;3.50;;;26.30;55.80;;;;;;5096749;28;21015;-56
2022/09/06 19:46:45;;;;;;;5.43;3.93;;;26.30;57.20;;;;;;5089311;28;20204;-66
2022/09/06 19:49:12;;;;;;;5.23;4.37;;;26.40;58.00;;;;;;5095264;28;21022;-62
2022/09/06 19:51:39;;;;;;;6.82;5.00;;;26.40;57.30;;;;;;5088711;28;20865;-66
2022/09/06 19:54:06;;;;;;;3.93;3.63;;;26.50;58.10;;;;;;5088885;28;20200;-67
2022/09/06 19:56:35;;;;;;;3.28;2.92;;;26.50;57.70;;;;;;5089655;28;20524;-67
2022/09/06 19:59:04;;;;;;;4.53;3.03;;;26.50;57.40;;;;;;5089055;28;20315;-63
2022/09/06 20:01:34;;;;;;;3.03;2.83;;;26.50;57.60;;;;;;5070164;28;20447;-67
2022/09/06 20:04:03;;;;;;;5.40;2.53;;;26.60;57.40;;;;;;5068314;28;21082;-70
2022/09/06 20:06:31;;;;;;;2.37;2.27;;;26.50;57.40;;;;;;5068224;28;20448;-67
2022/09/06 20:09:00;;;;;;;3.10;2.80;;;26.60;57.50;;;;;;5068470;28;21014;-67
2022/09/06 20:11:30;;;;;;;5.33;2.50;;;26.60;57.60;;;;;;5068466;28;20925;-67
2022/09/06 20:13:59;;;;;;;4.40;2.80;;;26.60;58.30;;;;;;5068457;28;21186;-67
2022/09/06 20:16:27;;;;;;;2.10;1.90;;;26.60;58.80;;;;;;5068736;28;20614;-67
2022/09/06 20:18:57;;;;;;;2.10;2.00;;;26.60;58.50;;;;;;5073886;28;20478;-65
2022/09/06 20:21:25;;;;;;;4.73;2.83;;;26.60;59.00;;;;;;5088787;28;20924;-67
2022/09/06 20:23:55;;;;;;;2.13;2.00;;;26.60;59.60;;;;;;5088307;28;20482;-67
2022/09/06 20:26:24;;;;;;;2.07;1.97;;;26.60;59.90;;;;;;5088361;28;20451;-67
2022/09/06 20:28:56;;;;;;;6.93;1.83;;;26.60;59.60;;;;;;5088389;28;20462;-68
2022/09/06 20:31:23;;;;;;;2.50;2.30;;;26.60;60.20;;;;;;5088466;28;20443;-66
2022/09/06 20:33:50;;;;;;;2.27;1.90;;;26.60;60.10;;;;;;5088075;28;20439;-67
2022/09/06 20:36:19;;;;;;;2.23;2.13;;;26.60;60.20;;;;;;5088429;28;20529;-67
2022/09/06 20:38:47;;;;;;;2.10;2.00;;;26.70;60.50;;;;;;5088161;28;20473;-67
2022/09/06 20:41:16;;;;;;;2.50;2.03;;;26.70;60.90;;;;;;5088415;28;20446;-66
2022/09/06 20:43:43;;;;;;;2.40;2.30;;;26.70;61.30;;;;;;5087829;28;20939;-66
2022/09/06 20:46:13;;;;;;;2.30;2.10;;;26.70;61.70;;;;;;5088125;28;20478;-65
2022/09/06 20:48:40;;;;;;;2.70;2.10;;;26.60;62.30;;;;;;5085916;28;20512;-68
2022/09/06 20:51:08;;;;;;;2.43;2.30;;;26.70;63.00;;;;;;5084199;28;20963;-67
2022/09/06 20:53:39;;;;;;;2.40;2.23;;;26.70;63.20;;;;;;5065343;28;20522;-67
2022/09/06 20:56:09;;;;;;;2.57;2.00;;;26.70;63.40;;;;;;5063703;28;20504;-67
2022/09/06 20:58:37;;;;;;;1.87;1.77;;;26.70;63.60;;;;;;5061020;28;20840;-67
2022/09/06 21:01:07;;;;;;;4.20;2.20;;;26.70;63.70;;;;;;5048007;28;20639;-67
2022/09/06 21:03:36;;;;;;;2.03;1.93;;;26.70;64.10;;;;;;5072399;28;20521;-66
2022/09/06 21:06:04;;;;;;;2.10;2.00;;;26.70;65.20;;;;;;5035125;28;20452;-66
2022/09/06 21:08:31;;;;;;;1.70;1.60;;;26.60;64.50;;;;;;5054409;28;20471;-65
2022/09/06 21:11:01;;;;;;;5.80;2.43;;;26.60;64.30;;;;;;5058496;28;20530;-67
2022/09/06 21:13:28;;;;;;;2.30;2.07;;;26.70;64.50;;;;;;5070821;28;21004;-67
2022/09/06 21:15:55;;;;;;;1.83;1.70;;;26.70;64.70;;;;;;5056225;28;20471;-66
2022/09/06 21:18:22;;;;;;;2.43;1.97;;;26.60;65.30;;;;;;5069788;28;20463;-66
2022/09/06 21:20:54;;;;;;;4.93;2.20;;;26.60;66.50;;;;;;5053893;28;20448;-66
2022/09/06 21:23:21;;;;;;;3.10;2.77;;;26.60;67.90;;;;;;5053751;28;21020;-67
2022/09/06 21:25:52;;;;;;;1.80;1.70;;;26.60;68.40;;;;;;5053805;28;20523;-68
2022/09/06 21:28:21;;;;;;;2.00;1.90;;;26.60;68.40;;;;;;5053911;28;20471;-67
2022/09/06 21:30:48;;;;;;;1.83;1.73;;;26.60;69.00;;;;;;5054833;28;20444;-66
2022/09/06 21:33:15;;;;;;;2.13;1.90;;;26.60;69.00;;;;;;5064575;28;20505;-67
2022/09/06 21:35:42;;;;;;;3.97;2.40;;;26.50;69.20;;;;;;5064229;28;20454;-71
2022/09/06 21:38:09;;;;;;;1.80;1.70;;;26.60;68.90;;;;;;5054620;28;20555;-67
2022/09/06 21:40:36;;;;;;;1.73;1.67;;;26.60;68.30;;;;;;5061291;28;20503;-67
2022/09/06 21:43:03;;;;;;;2.57;1.90;;;26.50;67.40;;;;;;5054756;28;20567;-68
2022/09/06 21:45:31;;;;;;;2.77;2.00;;;26.50;67.70;;;;;;5069427;28;20593;-66
2022/09/06 21:47:58;;;;;;;2.60;1.80;;;26.50;67.60;;;;;;5069144;28;20531;-68
